Time;durP1;ratioP1;P1;durP2;ratioP2;P2;SDS_P1;SDS_P2;PMS_P1;PMS_P2;Temp;Humidity;BMP_temperature;BMP_pressure;BME280_temperature;BME280_humidity;BME280_pressure;Samples;Min_cycle;Max_cycle;Signal;HPM_P1;HPM_P2
2022/10/04 00:00:42;;;;;;;6.03;3.10;;;16.40;63.40;;;;;;5090371;28;20504;-81
2022/10/04 00:03:10;;;;;;;7.82;2.97;;;16.80;62.80;;;;;;5058709;28;20036;-91
2022/10/04 00:05:36;;;;;;;6.78;3.08;;;17.00;62.30;;;;;;5058682;28;20095;-87
2022/10/04 00:08:22;;;;;;;7.95;3.00;;;17.10;61.90;;;;;;5057554;28;20021;-84
2022/10/04 00:10:48;;;;;;;8.52;3.63;;;17.20;61.60;;;;;;5037527;28;20415;-83
2022/10/04 00:13:23;;;;;;;6.05;2.63;;;17.30;61.70;;;;;;5038183;28;20029;-89
2022/10/04 00:15:50;;;;;;;7.93;2.67;;;17.10;62.10;;;;;;5057148;28;20471;-85
2022/10/04 00:18:27;;;;;;;6.13;2.67;;;17.10;61.70;;;;;;5057893;28;20090;-85
2022/10/04 00:20:52;;;;;;;8.05;2.90;;;17.20;61.60;;;;;;5058084;28;20131;-84
2022/10/04 00:23:25;;;;;;;6.53;2.90;;;17.30;61.70;;;;;;5075767;28;20099;-88
2022/10/04 00:26:33;;;;;;;6.30;2.80;;;17.20;61.70;;;;;;5056965;28;20028;-87
2022/10/04 00:29:25;;;;;;;7.07;2.80;;;17.00;62.30;;;;;;5056891;28;20031;-88
2022/10/04 00:32:25;;;;;;;9.60;2.97;;;16.90;62.30;;;;;;5057090;28;20027;-90
2022/10/04 00:34:54;;;;;;;7.45;2.95;;;16.60;63.20;;;;;;5056535;28;20069;-85
2022/10/04 00:37:22;;;;;;;7.82;2.90;;;16.60;63.00;;;;;;5057802;28;20029;-86
2022/10/04 00:40:24;;;;;;;6.13;2.88;;;16.60;63.30;;;;;;5057481;28;20024;-86
2022/10/04 00:42:57;;;;;;;10.32;3.35;;;16.80;62.90;;;;;;5033106;28;20022;-89
2022/10/04 00:45:32;;;;;;;8.60;2.90;;;16.60;63.40;;;;;;5034511;28;20290;-89
2022/10/04 00:48:36;;;;;;;7.22;3.00;;;16.80;63.10;;;;;;5033435;28;20022;-89
2022/10/04 00:51:16;;;;;;;7.93;2.92;;;17.20;62.40;;;;;;5032689;28;20048;-79
2022/10/04 00:54:21;;;;;;;10.25;3.00;;;17.20;62.40;;;;;;5033060;28;20133;-86
2022/10/04 00:56:54;;;;;;;5.35;2.72;;;17.30;62.00;;;;;;4954729;29;20035;-86
2022/10/04 00:59:45;;;;;;;6.47;2.80;;;17.30;62.00;;;;;;4954952;29;20019;-88
2022/10/04 01:02:20;;;;;;;5.95;2.95;;;17.50;62.40;;;;;;4953771;29;20039;-85
2022/10/04 01:05:02;;;;;;;7.47;3.00;;;17.50;62.00;;;;;;4938275;29;20027;-86
2022/10/04 01:07:33;;;;;;;6.60;3.13;;;17.60;61.70;;;;;;4938796;29;20106;-83
2022/10/04 01:10:06;;;;;;;8.55;3.55;;;17.60;62.30;;;;;;4953152;29;20510;-92
2022/10/04 01:12:59;;;;;;;7.85;3.35;;;17.80;61.80;;;;;;4951035;29;20031;-79
2022/10/04 01:15:41;;;;;;;5.78;3.00;;;17.80;61.50;;;;;;4928022;29;20511;-86
2022/10/04 01:18:22;;;;;;;5.55;3.05;;;17.70;62.00;;;;;;4955010;29;20032;-86
2022/10/04 01:20:49;;;;;;;5.95;3.20;;;17.80;61.90;;;;;;4954149;28;20035;-84
2022/10/04 01:23:36;;;;;;;6.35;3.40;;;17.90;61.70;;;;;;4954333;29;20122;-81
2022/10/04 01:26:23;;;;;;;8.70;3.30;;;18.10;61.40;;;;;;4954787;29;20070;-81
2022/10/04 01:28:48;;;;;;;9.85;4.00;;;18.20;61.10;;;;;;4950393;28;20038;-89
2022/10/04 01:31:15;;;;;;;9.02;4.07;;;18.10;61.80;;;;;;4955397;28;20051;-79
2022/10/04 01:33:41;;;;;;;7.05;3.45;;;18.10;61.60;;;;;;5016409;28;20099;-83
2022/10/04 01:36:07;;;;;;;6.68;3.08;;;18.20;61.50;;;;;;5036162;28;20503;-80
2022/10/04 01:38:33;;;;;;;5.32;2.95;;;18.30;61.20;;;;;;5036296;28;20109;-84
2022/10/04 01:41:02;;;;;;;6.38;3.50;;;18.50;60.80;;;;;;5053363;28;20582;-81
2022/10/04 01:43:34;;;;;;;8.10;3.47;;;18.50;61.30;;;;;;5074071;28;20352;-88
2022/10/04 01:46:11;;;;;;;9.30;4.10;;;18.30;61.50;;;;;;5056460;28;20539;-87
2022/10/04 01:48:46;;;;;;;12.75;3.70;;;18.10;62.10;;;;;;5073333;28;20021;-88
2022/10/04 01:51:23;;;;;;;8.07;3.58;;;18.20;62.30;;;;;;5037826;28;20439;-90
2022/10/04 01:53:58;;;;;;;11.32;4.85;;;17.70;62.90;;;;;;5037861;28;20032;-91
2022/10/04 01:56:31;;;;;;;7.85;3.47;;;17.60;63.70;;;;;;5055031;28;20493;-87
2022/10/04 01:59:04;;;;;;;9.00;3.58;;;17.80;63.20;;;;;;5036207;28;20025;-94
2022/10/04 02:01:57;;;;;;;6.05;3.42;;;18.10;62.70;;;;;;5054010;28;20025;-84
2022/10/04 02:04:27;;;;;;;6.88;3.53;;;18.10;62.10;;;;;;5036102;28;20136;-88
2022/10/04 02:06:55;;;;;;;;;;;18.10;62.30;;;;;;5036848;28;20071;-83
2022/10/04 02:09:49;;;;;;;9.23;4.05;;;18.20;62.20;;;;;;5056194;28;20001;-84
2022/10/04 02:12:17;;;;;;;9.70;3.92;;;18.10;62.00;;;;;;5070932;28;20070;-88
2022/10/04 02:14:51;;;;;;;5.43;3.35;;;17.90;62.60;;;;;;5073798;28;20016;-85
2022/10/04 02:17:24;;;;;;;14.93;4.38;;;17.70;63.80;;;;;;5055303;28;20107;-91
2022/10/04 02:19:52;;;;;;;7.68;3.97;;;17.70;63.30;;;;;;5067586;28;20476;-93
2022/10/04 02:22:19;;;;;;;6.45;4.10;;;18.10;62.70;;;;;;5052933;28;20033;-87
2022/10/04 02:24:47;;;;;;;6.90;3.47;;;18.30;62.40;;;;;;5053959;28;20482;-82
2022/10/04 02:27:14;;;;;;;8.40;4.15;;;18.30;62.10;;;;;;5055513;28;20073;-90
2022/10/04 02:29:40;;;;;;;7.00;3.60;;;18.60;61.50;;;;;;5055482;28;20048;-82
2022/10/04 02:34:53;;;;;;;7.63;3.88;;;18.50;61.70;;;;;;5073468;28;20407;-82
2022/10/04 02:37:29;;;;;;;8.60;4.20;;;18.40;62.10;;;;;;5073614;28;20044;-90
2022/10/04 02:40:02;;;;;;;9.65;3.50;;;18.10;62.10;;;;;;5060373;28;20116;-85
2022/10/04 02:43:06;;;;;;;8.65;4.20;;;18.00;62.70;;;;;;5053730;28;20116;-85
2022/10/04 02:45:41;;;;;;;8.93;3.80;;;18.20;62.40;;;;;;5034981;28;20021;-85
2022/10/04 02:48:28;;;;;;;6.72;3.70;;;18.30;61.80;;;;;;5051913;28;20028;-84
2022/10/04 02:50:59;;;;;;;7.28;3.42;;;17.90;62.80;;;;;;5064921;28;20041;-85
2022/10/04 02:53:56;;;;;;;6.00;3.80;;;17.80;63.20;;;;;;5055945;28;20123;-82
2022/10/04 02:56:24;;;;;;;6.25;3.15;;;17.70;63.40;;;;;;5075164;28;20043;-86
2022/10/04 02:58:50;;;;;;;11.45;4.43;;;17.80;63.00;;;;;;5052481;28;20495;-83
2022/10/04 03:01:25;;;;;;;6.68;3.85;;;17.80;62.90;;;;;;5039514;28;20028;-90
2022/10/04 03:03:52;;;;;;;8.43;3.60;;;17.70;62.80;;;;;;5039566;28;20464;-88
2022/10/04 03:06:20;;;;;;;13.95;5.05;;;17.50;63.10;;;;;;5039369;28;20036;-87
2022/10/04 03:08:53;;;;;;;6.32;3.40;;;17.40;63.60;;;;;;5043648;28;20070;-88
2022/10/04 03:11:23;;;;;;;7.13;3.83;;;17.50;64.30;;;;;;5075288;28;20036;-82
2022/10/04 03:13:51;;;;;;;6.78;3.53;;;17.70;63.80;;;;;;5054595;28;20029;-87
2022/10/04 03:16:18;;;;;;;7.53;3.90;;;17.50;63.20;;;;;;5053137;28;20064;-93
2022/10/04 03:18:48;;;;;;;7.53;3.85;;;17.30;64.20;;;;;;5084052;28;20384;-87
2022/10/04 03:21:17;;;;;;;9.48;3.63;;;17.30;64.40;;;;;;5072379;28;20040;-87
2022/10/04 03:23:45;;;;;;;8.73;3.90;;;16.90;64.70;;;;;;5038014;28;20128;-86
2022/10/04 03:26:33;;;;;;;7.53;3.63;;;17.00;64.90;;;;;;5055561;28;20028;-87
2022/10/04 03:28:59;;;;;;;6.32;3.78;;;17.40;64.20;;;;;;5038320;28;20063;-92
2022/10/04 03:31:26;;;;;;;6.45;3.40;;;17.40;63.90;;;;;;5072129;28;20039;-84
2022/10/04 03:33:56;;;;;;;7.15;3.67;;;17.40;63.80;;;;;;5061533;28;20020;-91
2022/10/04 03:36:24;;;;;;;8.63;3.65;;;17.30;64.20;;;;;;5075113;28;20032;-89
2022/10/04 03:38:53;;;;;;;8.05;4.00;;;17.30;64.00;;;;;;5058134;28;20067;-83
2022/10/04 03:41:20;;;;;;;7.15;3.65;;;17.40;63.90;;;;;;5058345;28;20051;-89
2022/10/04 03:43:50;;;;;;;7.88;3.80;;;17.40;64.40;;;;;;5090673;28;20017;-81
2022/10/04 03:46:20;;;;;;;6.05;3.50;;;17.40;63.90;;;;;;5055383;28;20035;-89
2022/10/04 03:48:52;;;;;;;6.35;3.92;;;17.50;63.60;;;;;;5054910;28;20021;-92
2022/10/04 03:51:25;;;;;;;9.68;4.30;;;17.50;63.60;;;;;;5054790;28;20044;-86
2022/10/04 03:53:58;;;;;;;6.63;3.55;;;17.50;63.60;;;;;;5063052;28;20423;-87
2022/10/04 03:56:27;;;;;;;7.13;3.72;;;17.40;64.30;;;;;;5076370;28;20051;-82
2022/10/04 03:58:54;;;;;;;6.38;3.65;;;17.50;63.50;;;;;;5075582;28;20016;-84
2022/10/04 04:01:23;;;;;;;9.30;4.20;;;17.40;64.30;;;;;;5074852;28;20031;-82
2022/10/04 04:04:12;;;;;;;7.47;3.38;;;17.50;63.70;;;;;;5107814;28;20031;-88
2022/10/04 04:07:00;;;;;;;7.13;3.47;;;17.50;63.80;;;;;;5075480;28;20032;-83
2022/10/04 04:09:41;;;;;;;6.85;3.70;;;17.60;64.00;;;;;;5074817;28;20032;-83
2022/10/04 04:12:19;;;;;;;7.00;3.88;;;18.00;62.80;;;;;;5074114;28;20387;-83
2022/10/04 04:14:49;;;;;;;11.02;3.45;;;18.00;63.00;;;;;;5074668;28;20028;-88
2022/10/04 04:17:37;;;;;;;10.82;4.03;;;18.30;62.30;;;;;;5091424;28;20048;-87
2022/10/04 04:20:14;;;;;;;6.20;3.58;;;18.30;62.00;;;;;;5091052;28;20735;-85
2022/10/04 04:22:43;;;;;;;7.35;3.63;;;18.10;62.60;;;;;;5071886;28;20082;-85
2022/10/04 04:25:14;;;;;;;7.75;3.35;;;18.20;62.60;;;;;;5073593;28;20024;-84
2022/10/04 04:27:42;;;;;;;7.50;3.35;;;18.40;62.20;;;;;;5090252;28;20048;-82
2022/10/04 04:30:15;;;;;;;10.00;3.50;;;18.40;62.10;;;;;;5073347;28;20040;-82
2022/10/04 04:32:45;;;;;;;8.00;3.47;;;18.40;62.10;;;;;;5073431;28;20020;-86
2022/10/04 04:35:30;;;;;;;6.47;3.63;;;18.30;62.00;;;;;;5072766;28;20070;-82
2022/10/04 04:38:22;;;;;;;6.75;3.30;;;18.40;62.60;;;;;;5054782;28;20041;-83
2022/10/04 04:40:48;;;;;;;6.85;3.60;;;18.30;62.10;;;;;;5044699;28;20045;-84
2022/10/04 04:43:18;;;;;;;7.43;3.63;;;18.00;63.10;;;;;;5044632;28;20033;-87
2022/10/04 04:45:48;;;;;;;10.70;4.35;;;18.10;62.60;;;;;;5053490;28;20040;-92
2022/10/04 04:48:16;;;;;;;7.82;3.25;;;18.10;63.10;;;;;;5040688;28;20021;-86
2022/10/04 04:50:52;;;;;;;9.88;3.97;;;18.00;63.40;;;;;;5049247;28;20041;-90
2022/10/04 04:53:27;;;;;;;8.73;3.40;;;18.10;63.40;;;;;;5072194;28;20379;-93
2022/10/04 04:56:03;;;;;;;8.25;4.20;;;18.20;62.90;;;;;;5055897;28;20118;-80
2022/10/04 04:58:35;;;;;;;7.45;3.47;;;18.20;63.20;;;;;;5052134;28;20452;-83
2022/10/04 05:01:28;;;;;;;7.25;3.60;;;18.40;62.50;;;;;;5061768;28;20052;-83
2022/10/04 05:04:14;;;;;;;7.05;3.50;;;18.20;62.90;;;;;;5039522;28;20119;-89
2022/10/04 05:06:43;;;;;;;11.55;4.00;;;18.40;62.70;;;;;;5037306;28;20025;-95
2022/10/04 05:09:41;;;;;;;9.35;3.45;;;18.50;62.30;;;;;;5035311;28;20396;-89
2022/10/04 05:12:18;;;;;;;9.40;3.72;;;18.50;62.60;;;;;;4972225;28;20045;-80
2022/10/04 05:15:11;;;;;;;7.30;3.70;;;18.50;62.70;;;;;;4954280;28;20027;-80
2022/10/04 05:17:37;;;;;;;8.35;3.60;;;18.70;62.30;;;;;;4991262;28;20034;-85
2022/10/04 05:20:06;;;;;;;7.63;3.20;;;18.80;62.00;;;;;;4992709;28;20031;-86
2022/10/04 05:22:51;;;;;;;8.88;3.38;;;18.60;62.20;;;;;;4976239;28;20034;-86
2022/10/04 05:25:26;;;;;;;7.88;3.00;;;18.80;62.40;;;;;;4965421;28;20026;-84
2022/10/04 05:27:53;;;;;;;5.63;3.20;;;19.00;61.80;;;;;;4960970;28;20107;-81
2022/10/04 05:30:35;;;;;;;5.40;3.10;;;19.10;61.50;;;;;;4967975;28;20050;-84
2022/10/04 05:33:03;;;;;;;6.78;3.70;;;19.00;61.60;;;;;;5007839;28;20022;-87
2022/10/04 05:35:46;;;;;;;6.45;2.90;;;19.00;61.80;;;;;;5000436;28;20038;-83
2022/10/04 05:38:40;;;;;;;9.57;3.35;;;19.20;61.10;;;;;;5009514;28;20025;-88
2022/10/04 05:41:30;;;;;;;8.13;3.50;;;19.10;61.40;;;;;;4996156;28;20065;-81
2022/10/04 05:43:56;;;;;;;10.53;3.83;;;18.90;62.30;;;;;;4992668;28;20030;-88
2022/10/04 05:46:34;;;;;;;5.60;3.50;;;19.10;61.90;;;;;;4992390;28;20022;-85
2022/10/04 05:49:14;;;;;;;7.50;3.53;;;19.10;61.50;;;;;;5046034;28;20120;-89
2022/10/04 05:51:52;;;;;;;;;;;19.20;61.60;;;;;;5068855;28;20043;-84
2022/10/04 05:54:27;;;;;;;7.57;3.13;;;19.10;61.70;;;;;;5035018;28;20314;-86
2022/10/04 05:57:32;;;;;;;7.22;3.10;;;19.20;61.60;;;;;;5053003;28;20090;-80
2022/10/04 06:00:09;;;;;;;8.25;3.45;;;19.00;62.30;;;;;;5045442;28;20025;-82
2022/10/04 06:03:19;;;;;;;6.85;3.30;;;19.20;61.80;;;;;;5034289;28;20025;-83
2022/10/04 06:06:04;;;;;;;7.72;3.38;;;19.40;61.00;;;;;;5034443;28;20025;-82
2022/10/04 06:08:35;;;;;;;7.53;2.72;;;19.50;61.20;;;;;;5035992;28;20059;-78
2022/10/04 06:11:11;;;;;;;6.25;2.88;;;19.50;61.10;;;;;;5049481;28;20036;-81
2022/10/04 06:13:51;;;;;;;7.68;2.65;;;19.60;61.20;;;;;;5073186;28;20021;-80
2022/10/04 06:16:40;;;;;;;6.00;2.72;;;19.60;61.20;;;;;;5049971;28;20028;-93
2022/10/04 06:19:13;;;;;;;6.63;3.13;;;19.70;61.20;;;;;;5068030;28;20032;-83
2022/10/04 06:22:13;;;;;;;10.68;3.00;;;19.90;60.90;;;;;;5089806;28;20021;-87
2022/10/04 06:24:41;;;;;;;6.82;3.00;;;19.50;61.20;;;;;;5084002;28;20078;-80
2022/10/04 06:27:29;;;;;;;9.68;3.55;;;19.30;61.40;;;;;;5056261;28;20047;-81
2022/10/04 06:30:19;;;;;;;7.15;2.90;;;19.20;62.30;;;;;;5058807;28;20051;-80
2022/10/04 06:33:20;;;;;;;9.27;3.43;;;19.40;62.10;;;;;;5050627;28;20032;-84
2022/10/04 06:36:08;;;;;;;6.47;3.92;;;19.50;61.60;;;;;;5077274;28;20027;-93
2022/10/04 06:39:18;;;;;;;5.65;2.90;;;19.40;61.90;;;;;;5055988;28;20284;-82
2022/10/04 06:42:18;;;;;;;6.70;3.30;;;19.50;61.60;;;;;;5015069;28;20026;-81
2022/10/04 06:44:50;;;;;;;5.75;2.90;;;19.20;62.10;;;;;;5002870;28;20094;-79
2022/10/04 06:47:53;;;;;;;9.68;3.00;;;19.00;63.10;;;;;;5037970;28;20040;-90
2022/10/04 06:50:40;;;;;;;4.53;3.00;;;18.90;63.30;;;;;;5010555;28;20046;-87
2022/10/04 06:53:17;;;;;;;6.93;3.40;;;18.90;63.60;;;;;;4950924;29;20085;-84
2022/10/04 06:56:10;;;;;;;5.47;3.17;;;18.80;64.80;;;;;;4956591;29;20035;-86
2022/10/04 06:59:10;;;;;;;5.35;3.10;;;18.90;64.60;;;;;;4956409;29;20108;-82
2022/10/04 07:01:39;;;;;;;5.65;3.10;;;19.00;64.60;;;;;;4956620;29;20403;-81
2022/10/04 07:04:20;;;;;;;8.57;3.10;;;18.70;65.80;;;;;;4956871;29;20042;-84
2022/10/04 07:07:25;;;;;;;5.40;3.20;;;18.80;65.20;;;;;;4956798;28;20031;-92
2022/10/04 07:10:02;;;;;;;7.15;3.00;;;18.60;65.60;;;;;;4956615;29;20035;-88
2022/10/04 07:12:31;;;;;;;6.30;3.22;;;18.90;65.30;;;;;;4959341;28;20073;-84
2022/10/04 07:15:02;;;;;;;6.72;3.28;;;18.80;65.00;;;;;;4975349;28;20031;-81
2022/10/04 07:17:37;;;;;;;5.35;3.42;;;19.00;65.50;;;;;;4959450;28;20042;-90
2022/10/04 07:20:06;;;;;;;5.72;3.33;;;19.20;64.90;;;;;;4991610;28;20031;-80
2022/10/04 07:22:44;;;;;;;5.90;3.28;;;19.50;64.40;;;;;;4975245;28;20564;-84
2022/10/04 07:25:14;;;;;;;6.22;3.25;;;19.60;63.20;;;;;;4974686;28;20031;-87
2022/10/04 07:30:51;;;;;;;5.82;3.38;;;20.10;63.20;;;;;;5018388;28;20520;-88
2022/10/04 07:33:22;;;;;;;6.07;3.08;;;20.20;62.50;;;;;;5018320;28;20021;-81
2022/10/04 07:36:12;;;;;;;4.28;2.85;;;20.30;62.00;;;;;;5034944;28;20029;-82
2022/10/04 07:39:00;;;;;;;5.13;2.78;;;20.40;62.10;;;;;;5034581;28;20044;-83
2022/10/04 07:41:34;;;;;;;5.85;3.08;;;20.50;61.70;;;;;;5017919;28;20119;-82
2022/10/04 07:44:14;;;;;;;6.80;2.97;;;20.50;61.30;;;;;;5035129;28;20017;-90
2022/10/04 07:46:52;;;;;;;6.47;3.15;;;20.00;62.20;;;;;;5018133;28;20031;-88
2022/10/04 07:49:20;;;;;;;6.10;2.63;;;19.80;63.00;;;;;;5016764;28;20018;-84
2022/10/04 07:51:52;;;;;;;5.95;2.92;;;19.70;63.50;;;;;;5050372;28;20432;-82
2022/10/04 07:54:39;;;;;;;6.78;3.00;;;19.60;63.30;;;;;;5017977;28;20029;-81
2022/10/04 07:57:13;;;;;;;6.50;2.70;;;19.60;63.40;;;;;;5035854;28;20057;-94
2022/10/04 07:59:54;;;;;;;5.25;2.70;;;19.80;63.50;;;;;;5017792;28;20022;-85
2022/10/04 08:02:38;;;;;;;5.70;2.90;;;20.20;62.90;;;;;;5050958;28;20109;-92
2022/10/04 08:05:16;;;;;;;5.95;2.80;;;20.50;61.70;;;;;;5016911;28;20026;-82
2022/10/04 08:08:12;;;;;;;7.43;2.72;;;20.60;61.70;;;;;;5018166;28;20107;-90
2022/10/04 08:11:11;;;;;;;5.65;2.70;;;20.50;61.40;;;;;;5036154;28;20473;-87
2022/10/04 08:13:37;;;;;;;7.82;2.80;;;20.40;61.80;;;;;;4996499;28;20037;-88
2022/10/04 08:16:22;;;;;;;6.03;2.90;;;20.70;61.30;;;;;;5013252;28;20068;-84
2022/10/04 08:19:00;;;;;;;5.75;2.70;;;20.90;61.20;;;;;;5012766;28;20026;-82
2022/10/04 08:21:39;;;;;;;7.28;2.80;;;21.10;61.00;;;;;;5012196;28;20480;-79
2022/10/04 08:24:23;;;;;;;12.63;11.48;;;21.50;60.50;;;;;;5012707;28;20112;-82
2022/10/04 08:26:55;;;;;;;6.47;2.88;;;21.40;60.30;;;;;;5012289;28;20520;-81
2022/10/04 08:29:42;;;;;;;7.72;2.83;;;21.30;61.30;;;;;;5012587;28;20497;-89
2022/10/04 08:32:40;;;;;;;6.15;2.92;;;21.50;61.10;;;;;;5032702;28;20025;-85
2022/10/04 08:35:26;;;;;;;5.15;2.53;;;21.10;60.80;;;;;;5032798;28;20480;-80
2022/10/04 08:38:29;;;;;;;7.38;2.60;;;21.20;61.20;;;;;;5032176;28;20491;-80
2022/10/04 08:41:29;;;;;;;4.53;2.63;;;21.30;60.30;;;;;;5032107;28;20033;-80
2022/10/04 08:44:28;;;;;;;5.03;2.70;;;20.80;61.10;;;;;;5031994;28;20037;-87
2022/10/04 08:47:04;;;;;;;5.10;2.67;;;20.70;60.90;;;;;;5032515;28;20029;-84
2022/10/04 08:49:39;;;;;;;6.53;2.70;;;20.60;60.70;;;;;;5038633;28;20139;-90
2022/10/04 08:52:04;;;;;;;4.25;2.47;;;20.20;60.50;;;;;;5053899;28;20029;-84
2022/10/04 08:54:55;;;;;;;5.20;2.50;;;19.80;61.60;;;;;;5053756;28;20028;-84
2022/10/04 08:58:04;;;;;;;5.45;2.90;;;20.00;61.50;;;;;;5070022;28;20025;-82
2022/10/04 09:00:57;;;;;;;4.80;2.30;;;20.30;61.20;;;;;;5036595;28;20375;-87
2022/10/04 09:03:49;;;;;;;4.85;2.60;;;20.20;61.00;;;;;;5054315;28;20090;-87
2022/10/04 09:06:21;;;;;;;6.93;2.50;;;20.30;61.20;;;;;;5036170;28;20387;-89
2022/10/04 09:09:17;;;;;;;6.93;2.85;;;20.40;60.80;;;;;;5036976;28;20032;-87
2022/10/04 09:12:21;;;;;;;4.68;2.67;;;20.60;60.80;;;;;;5054348;28;20044;-89
2022/10/04 09:15:24;;;;;;;5.00;2.78;;;20.70;60.50;;;;;;5035466;28;20086;-86
2022/10/04 09:18:16;;;;;;;6.32;2.97;;;20.90;59.70;;;;;;5036119;28;20032;-85
2022/10/04 09:21:02;;;;;;;4.82;2.63;;;21.00;59.30;;;;;;5053111;28;20036;-93
2022/10/04 09:23:32;;;;;;;4.00;2.70;;;21.30;59.90;;;;;;5054146;28;20022;-81
2022/10/04 09:26:32;;;;;;;7.18;2.60;;;21.20;59.30;;;;;;5036529;28;20090;-81
2022/10/04 09:29:25;;;;;;;5.13;2.95;;;21.20;59.60;;;;;;5035931;28;20112;-82
2022/10/04 09:32:02;;;;;;;6.20;2.50;;;21.20;58.80;;;;;;5053744;28;20021;-87
2022/10/04 09:35:07;;;;;;;5.25;2.40;;;21.10;58.80;;;;;;5036501;28;20029;-87
2022/10/04 09:38:17;;;;;;;6.68;2.58;;;21.50;59.30;;;;;;5054493;28;20024;-95
2022/10/04 09:41:13;;;;;;;4.28;2.55;;;21.60;58.90;;;;;;5035583;28;20031;-86
2022/10/04 09:43:57;;;;;;;4.07;2.35;;;21.80;59.10;;;;;;5053281;28;20033;-82
2022/10/04 09:46:32;;;;;;;5.40;2.50;;;22.00;58.80;;;;;;5054103;28;20025;-83
2022/10/04 09:49:34;;;;;;;4.35;2.40;;;22.10;58.30;;;;;;5053228;28;20025;-83
2022/10/04 09:52:17;;;;;;;3.92;2.20;;;22.30;58.30;;;;;;5035723;28;20053;-91
2022/10/04 09:54:46;;;;;;;4.75;2.30;;;22.40;57.90;;;;;;5068879;28;20022;-91
2022/10/04 09:57:45;;;;;;;4.80;2.40;;;22.50;58.30;;;;;;5068425;28;20037;-89
2022/10/04 10:00:32;;;;;;;23.75;21.88;;;22.70;57.00;;;;;;5035347;28;20112;-81
2022/10/04 10:03:22;;;;;;;4.47;2.70;;;22.60;56.40;;;;;;5037772;28;20024;-83
2022/10/04 10:06:13;;;;;;;3.80;2.03;;;22.80;56.90;;;;;;5072733;28;20025;-82
2022/10/04 10:08:48;;;;;;;3.95;2.10;;;22.90;56.60;;;;;;5039365;28;20078;-85
2022/10/04 10:14:06;;;;;;;5.45;2.35;;;23.00;56.90;;;;;;5057524;28;20068;-83
2022/10/04 10:16:59;;;;;;;4.55;2.13;;;23.10;55.40;;;;;;5072032;28;20091;-83
2022/10/04 10:19:43;;;;;;;6.10;2.25;;;23.30;55.10;;;;;;5039502;28;20017;-87
2022/10/04 10:22:30;;;;;;;4.03;2.17;;;23.00;53.50;;;;;;5039834;28;20037;-88
2022/10/04 10:25:27;;;;;;;5.68;2.10;;;22.90;52.70;;;;;;5056455;28;20033;-83
2022/10/04 10:28:15;;;;;;;3.83;1.85;;;22.90;54.40;;;;;;5072796;28;20455;-85
2022/10/04 10:31:17;;;;;;;4.30;2.05;;;23.40;54.20;;;;;;5038724;28;20056;-83
2022/10/04 10:34:00;;;;;;;5.63;2.60;;;23.70;53.40;;;;;;5056849;28;20021;-84
2022/10/04 10:36:52;;;;;;;6.57;3.15;;;23.80;52.90;;;;;;5056438;28;20100;-80
2022/10/04 10:40:16;;;;;;;7.65;3.75;;;23.60;51.60;;;;;;5040273;28;20020;-94
2022/10/04 10:43:06;;;;;;;5.13;2.08;;;23.50;52.40;;;;;;5015323;28;20025;-90
2022/10/04 10:45:55;;;;;;;5.90;2.20;;;22.90;52.10;;;;;;5015174;28;20034;-89
2022/10/04 10:48:26;;;;;;;3.42;1.90;;;22.90;53.30;;;;;;4999023;28;20034;-88
2022/10/04 10:51:09;;;;;;;3.70;1.88;;;22.70;52.70;;;;;;4998596;28;20435;-93
2022/10/04 10:53:56;;;;;;;4.05;2.42;;;22.40;53.80;;;;;;4998129;28;20444;-81
2022/10/04 10:56:30;;;;;;;3.60;2.00;;;22.30;54.30;;;;;;4998184;28;20026;-83
2022/10/04 10:59:07;;;;;;;3.72;1.80;;;22.20;54.20;;;;;;4998021;28;20532;-87
2022/10/04 11:02:27;;;;;;;4.85;2.67;;;21.90;53.80;;;;;;4998589;28;20034;-88
2022/10/04 11:05:17;;;;;;;4.90;2.63;;;21.50;54.60;;;;;;5007500;28;20048;-85
2022/10/04 11:07:43;;;;;;;4.60;2.13;;;21.80;55.90;;;;;;4998140;28;20041;-82
2022/10/04 11:10:41;;;;;;;4.22;2.00;;;22.20;55.20;;;;;;4997870;28;20037;-81
2022/10/04 11:13:25;;;;;;;6.45;2.08;;;22.50;55.10;;;;;;5016965;28;20033;-82
2022/10/04 11:16:04;;;;;;;3.88;1.80;;;22.80;53.70;;;;;;5070941;28;20369;-84
2022/10/04 11:18:48;;;;;;;4.45;2.05;;;23.00;54.00;;;;;;5071012;28;20102;-82
2022/10/04 11:21:33;;;;;;;5.70;2.33;;;23.10;53.40;;;;;;5071197;28;20495;-81
2022/10/04 11:24:33;;;;;;;3.30;2.00;;;23.00;53.40;;;;;;5037343;28;20449;-83
2022/10/04 11:27:23;;;;;;;4.03;1.95;;;23.20;54.20;;;;;;5055947;28;20092;-84
2022/10/04 11:30:22;;;;;;;4.00;2.00;;;23.20;52.80;;;;;;5055264;28;20045;-84
2022/10/04 11:32:58;;;;;;;3.33;1.80;;;23.10;52.20;;;;;;5071007;28;20485;-88
2022/10/04 11:35:35;;;;;;;3.80;1.83;;;23.00;52.10;;;;;;5055552;28;20481;-81
2022/10/04 11:38:47;;;;;;;3.47;1.90;;;22.90;52.40;;;;;;5037202;28;20017;-81
2022/10/04 11:41:19;;;;;;;4.47;2.17;;;23.10;53.40;;;;;;5013537;28;20034;-91
2022/10/04 11:44:32;;;;;;;4.03;1.95;;;23.10;52.90;;;;;;5006441;28;20041;-86
2022/10/04 11:47:07;;;;;;;3.85;2.00;;;22.30;54.30;;;;;;4929855;29;20043;-83
2022/10/04 11:49:38;;;;;;;5.13;2.10;;;22.70;54.70;;;;;;4936305;29;20039;-82
2022/10/04 11:52:22;;;;;;;3.83;2.00;;;23.10;54.40;;;;;;4935454;29;20074;-81
2022/10/04 11:55:22;;;;;;;4.05;2.30;;;23.40;54.60;;;;;;4935901;29;20095;-82
2022/10/04 11:57:57;;;;;;;4.13;2.20;;;23.40;53.60;;;;;;4936053;29;20039;-84
2022/10/04 12:00:25;;;;;;;8.80;3.30;;;23.40;53.70;;;;;;4935802;28;20162;-84
2022/10/04 12:03:27;;;;;;;3.80;2.72;;;23.30;54.50;;;;;;4936266;29;20533;-85
2022/10/04 12:06:38;;;;;;;4.80;2.65;;;22.90;52.80;;;;;;4936164;29;20122;-86
2022/10/04 12:09:25;;;;;;;5.45;2.00;;;22.80;54.00;;;;;;4935860;29;20456;-83
2022/10/04 12:12:36;;;;;;;3.40;2.20;;;22.50;53.40;;;;;;4936043;29;20511;-86
2022/10/04 12:15:21;;;;;;;4.97;2.50;;;22.50;53.60;;;;;;4935884;29;20091;-81
2022/10/04 12:18:13;;;;;;;3.85;2.60;;;22.50;54.40;;;;;;4973535;28;20042;-87
2022/10/04 12:21:01;;;;;;;3.63;2.00;;;22.70;54.60;;;;;;4994147;28;20040;-85
2022/10/04 12:23:45;;;;;;;6.60;4.03;;;22.70;55.20;;;;;;5070529;28;20070;-82
2022/10/04 12:26:48;;;;;;;6.72;4.55;;;22.30;55.80;;;;;;5037157;28;20029;-89
2022/10/04 12:29:31;;;;;;;9.82;4.25;;;22.50;55.90;;;;;;5069721;28;20048;-85
2022/10/04 12:32:04;;;;;;;4.65;1.88;;;22.60;54.80;;;;;;5069907;28;20075;-90
2022/10/04 12:34:57;;;;;;;5.07;2.25;;;22.60;53.80;;;;;;5037099;28;20021;-85
2022/10/04 12:37:41;;;;;;;4.20;2.00;;;22.40;54.80;;;;;;5036795;28;20049;-84
2022/10/04 12:40:26;;;;;;;3.97;2.10;;;22.80;54.50;;;;;;5070198;28;20067;-88
2022/10/04 12:43:10;;;;;;;3.70;1.90;;;22.70;54.70;;;;;;5036703;28;20028;-81
2022/10/04 12:45:58;;;;;;;4.50;2.25;;;22.80;54.90;;;;;;5036555;28;20032;-85
2022/10/04 12:49:02;;;;;;;3.55;2.13;;;23.00;55.40;;;;;;5054531;28;20033;-94
2022/10/04 12:51:56;;;;;;;2.90;1.80;;;23.10;55.00;;;;;;5012094;28;20037;-89
2022/10/04 12:54:46;;;;;;;4.20;1.70;;;23.10;54.40;;;;;;4996353;28;20034;-84
2022/10/04 12:57:49;;;;;;;2.80;1.83;;;23.20;54.20;;;;;;4996289;28;20033;-87
2022/10/04 13:00:21;;;;;;;4.78;2.17;;;23.10;54.00;;;;;;5012635;28;20029;-83
2022/10/04 13:02:53;;;;;;;3.67;1.52;;;23.00;53.90;;;;;;5012311;28;20032;-88
2022/10/04 13:05:31;;;;;;;3.30;1.73;;;23.00;54.20;;;;;;4995537;28;20429;-90
2022/10/04 13:08:21;;;;;;;2.95;1.55;;;23.00;54.50;;;;;;4996493;28;20033;-83
2022/10/04 13:11:05;;;;;;;2.72;1.55;;;23.10;53.20;;;;;;5012577;28;20058;-87
2022/10/04 13:14:18;;;;;;;2.95;1.45;;;22.90;53.70;;;;;;4995393;28;20385;-86
2022/10/04 13:16:56;;;;;;;3.50;1.60;;;23.00;54.50;;;;;;4995808;28;20591;-80
2022/10/04 13:19:49;;;;;;;4.15;1.58;;;23.00;52.70;;;;;;4995738;28;20026;-83
2022/10/04 13:22:14;;;;;;;3.55;1.60;;;22.90;52.20;;;;;;5012216;28;20397;-80
2022/10/04 13:24:54;;;;;;;3.05;1.50;;;23.00;53.00;;;;;;5011351;28;20026;-84
2022/10/04 13:27:44;;;;;;;3.53;1.30;;;23.20;52.90;;;;;;5021519;28;20040;-87
2022/10/04 13:30:22;;;;;;;3.50;1.50;;;23.10;53.10;;;;;;5035326;28;20072;-81
2022/10/04 13:33:27;;;;;;;3.35;1.42;;;23.20;52.50;;;;;;5053797;28;20468;-81
2022/10/04 13:36:29;;;;;;;2.65;1.50;;;23.50;52.70;;;;;;5035977;28;20060;-82
2022/10/04 13:39:17;;;;;;;2.60;1.70;;;23.40;52.00;;;;;;4992553;28;20192;-95
2022/10/04 13:41:54;;;;;;;3.90;1.70;;;23.00;52.90;;;;;;4992205;28;20043;-85
2022/10/04 13:44:34;;;;;;;3.00;1.67;;;23.00;53.00;;;;;;4992904;28;20071;-85
2022/10/04 13:47:23;;;;;;;4.27;1.63;;;22.70;53.30;;;;;;4991789;28;20600;-81
2022/10/04 13:49:51;;;;;;;5.05;1.63;;;23.00;52.80;;;;;;4992296;28;20290;-89
2022/10/04 13:58:29;;;;;;;4.35;1.85;;;23.10;53.10;;;;;;4991952;28;20085;-91
2022/10/04 14:01:20;;;;;;;3.83;1.70;;;23.00;52.80;;;;;;5008986;28;20038;-81
2022/10/04 14:03:58;;;;;;;6.95;1.95;;;23.30;52.40;;;;;;4992089;28;20030;-84
2022/10/04 14:06:38;;;;;;;3.13;1.48;;;23.20;52.00;;;;;;5008311;28;20478;-81
2022/10/04 14:09:12;;;;;;;2.85;1.52;;;23.40;52.60;;;;;;4992137;28;20039;-95
2022/10/04 14:12:06;;;;;;;3.63;1.80;;;23.70;51.80;;;;;;5008846;28;20058;-86
2022/10/04 14:14:47;;;;;;;4.13;1.80;;;23.40;51.60;;;;;;5014586;28;20099;-83
2022/10/04 14:17:12;;;;;;;;;;;23.20;52.30;;;;;;5053817;28;20021;-88